Steprock, Arkansas
Current Conditions -  °F | °C
As of 10:56 AM on Thursday 18 Dec 2014 (Local Time) from KSRC Reporting Station
Haze Haze  
Wind Chill: 35°   Ceiling: 500
Heat Index: 39°   Visibility: 3mi
Dew Point: 38°   Wind: 6mph
Humidity: 96%   Direction: 70°ENE
Pressure: 30.28"   Gusts: NA
Location:  35.43°N, 91.69°W
Report Text: KSRC 181656Z AUTO 07005KT 3SM BR OVC005 04/03 A3028 RMK AO2 SLP260 T00390033 TSNO
Loading
Personal Weather Stations






























Interactive Weather Map New forecast layout! Learn more

10-Day Weather Forecast

Advertisements
Track Severe Weather on mobile